sensor_id;sensor_type;location;lat;lon;timestamp;temperature;humidity
1107;DHT22;540;49.448;8.612;2023-07-08T00:02:13;26.80;29.90
1107;DHT22;540;49.448;8.612;2023-07-08T00:04:42;26.70;29.80
1107;DHT22;540;49.448;8.612;2023-07-08T00:07:11;26.70;30.00
1107;DHT22;540;49.448;8.612;2023-07-08T00:09:40;26.70;29.80
1107;DHT22;540;49.448;8.612;2023-07-08T00:12:10;26.70;29.60
1107;DHT22;540;49.448;8.612;2023-07-08T00:14:38;26.70;29.40
1107;DHT22;540;49.448;8.612;2023-07-08T00:17:11;26.70;29.50
1107;DHT22;540;49.448;8.612;2023-07-08T00:19:40;26.70;29.50
1107;DHT22;540;49.448;8.612;2023-07-08T00:22:11;26.70;29.50
1107;DHT22;540;49.448;8.612;2023-07-08T00:24:39;26.70;29.50
1107;DHT22;540;49.448;8.612;2023-07-08T00:27:10;26.70;29.50
1107;DHT22;540;49.448;8.612;2023-07-08T00:29:39;26.80;29.30
1107;DHT22;540;49.448;8.612;2023-07-08T00:32:12;26.80;29.40
1107;DHT22;540;49.448;8.612;2023-07-08T00:34:40;26.70;29.40
1107;DHT22;540;49.448;8.612;2023-07-08T00:37:10;26.80;29.00
1107;DHT22;540;49.448;8.612;2023-07-08T00:39:38;26.80;29.20
1107;DHT22;540;49.448;8.612;2023-07-08T00:42:15;26.70;29.20
1107;DHT22;540;49.448;8.612;2023-07-08T00:44:44;26.70;28.90
1107;DHT22;540;49.448;8.612;2023-07-08T00:47:14;26.70;29.20
1107;DHT22;540;49.448;8.612;2023-07-08T00:49:45;26.70;29.20
1107;DHT22;540;49.448;8.612;2023-07-08T00:52:17;26.70;29.10
1107;DHT22;540;49.448;8.612;2023-07-08T00:54:45;26.70;29.20
1107;DHT22;540;49.448;8.612;2023-07-08T00:57:15;26.70;29.20
1107;DHT22;540;49.448;8.612;2023-07-08T00:59:46;26.60;29.30
1107;DHT22;540;49.448;8.612;2023-07-08T01:02:17;26.60;29.30
1107;DHT22;540;49.448;8.612;2023-07-08T01:04:50;26.50;29.20
1107;DHT22;540;49.448;8.612;2023-07-08T01:07:20;26.60;29.00
1107;DHT22;540;49.448;8.612;2023-07-08T01:09:52;26.50;28.80
1107;DHT22;540;49.448;8.612;2023-07-08T01:12:26;26.50;28.80
1107;DHT22;540;49.448;8.612;2023-07-08T01:14:59;26.40;28.90
1107;DHT22;540;49.448;8.612;2023-07-08T01:17:29;26.40;29.20
1107;DHT22;540;49.448;8.612;2023-07-08T01:19:59;26.30;29.60
1107;DHT22;540;49.448;8.612;2023-07-08T01:22:34;26.10;30.00
1107;DHT22;540;49.448;8.612;2023-07-08T01:25:02;25.90;30.70
1107;DHT22;540;49.448;8.612;2023-07-08T01:27:33;25.70;31.20
1107;DHT22;540;49.448;8.612;2023-07-08T01:30:04;25.60;31.50
1107;DHT22;540;49.448;8.612;2023-07-08T01:32:32;25.40;31.80
1107;DHT22;540;49.448;8.612;2023-07-08T01:35:02;25.30;32.00
1107;DHT22;540;49.448;8.612;2023-07-08T01:37:35;25.20;32.10
1107;DHT22;540;49.448;8.612;2023-07-08T01:40:19;25.20;32.10
1107;DHT22;540;49.448;8.612;2023-07-08T01:42:50;25.20;32.00
1107;DHT22;540;49.448;8.612;2023-07-08T01:45:21;25.20;32.50
1107;DHT22;540;49.448;8.612;2023-07-08T01:47:52;25.20;32.10
1107;DHT22;540;49.448;8.612;2023-07-08T01:50:21;25.10;32.30
1107;DHT22;540;49.448;8.612;2023-07-08T01:52:53;25.10;32.50
1107;DHT22;540;49.448;8.612;2023-07-08T01:55:24;25.10;32.30
1107;DHT22;540;49.448;8.612;2023-07-08T01:57:52;25.10;32.40
1107;DHT22;540;49.448;8.612;2023-07-08T02:00:21;25.10;32.30
1107;DHT22;540;49.448;8.612;2023-07-08T02:02:50;25.10;32.50
1107;DHT22;540;49.448;8.612;2023-07-08T02:05:18;25.10;32.70
1107;DHT22;540;49.448;8.612;2023-07-08T02:07:46;25.00;32.90
1107;DHT22;540;49.448;8.612;2023-07-08T02:10:16;24.90;33.30
1107;DHT22;540;49.448;8.612;2023-07-08T02:12:43;24.90;33.20
1107;DHT22;540;49.448;8.612;2023-07-08T02:15:11;24.90;33.30
1107;DHT22;540;49.448;8.612;2023-07-08T02:17:39;24.90;33.50
1107;DHT22;540;49.448;8.612;2023-07-08T02:20:08;24.80;33.60
1107;DHT22;540;49.448;8.612;2023-07-08T02:22:36;24.80;34.00
1107;DHT22;540;49.448;8.612;2023-07-08T02:25:05;24.60;34.20
1107;DHT22;540;49.448;8.612;2023-07-08T02:27:34;24.60;34.70
1107;DHT22;540;49.448;8.612;2023-07-08T02:30:02;24.50;35.30
1107;DHT22;540;49.448;8.612;2023-07-08T02:32:30;24.40;35.80
1107;DHT22;540;49.448;8.612;2023-07-08T02:35:02;24.30;36.30
1107;DHT22;540;49.448;8.612;2023-07-08T02:37:30;24.20;36.40
1107;DHT22;540;49.448;8.612;2023-07-08T02:39:58;24.10;36.60
1107;DHT22;540;49.448;8.612;2023-07-08T02:42:26;24.10;37.00
1107;DHT22;540;49.448;8.612;2023-07-08T02:44:55;24.00;36.80
1107;DHT22;540;49.448;8.612;2023-07-08T02:47:23;23.90;37.20
1107;DHT22;540;49.448;8.612;2023-07-08T02:49:51;23.90;37.60
1107;DHT22;540;49.448;8.612;2023-07-08T02:52:21;23.80;38.00
1107;DHT22;540;49.448;8.612;2023-07-08T02:54:48;23.80;38.80
1107;DHT22;540;49.448;8.612;2023-07-08T02:57:16;23.70;39.10
1107;DHT22;540;49.448;8.612;2023-07-08T02:59:44;23.70;39.50
1107;DHT22;540;49.448;8.612;2023-07-08T03:02:13;23.60;40.10
1107;DHT22;540;49.448;8.612;2023-07-08T03:04:41;23.50;40.70
1107;DHT22;540;49.448;8.612;2023-07-08T03:07:10;23.50;40.90
1107;DHT22;540;49.448;8.612;2023-07-08T03:09:38;23.50;41.30
1107;DHT22;540;49.448;8.612;2023-07-08T03:12:08;23.40;41.90
1107;DHT22;540;49.448;8.612;2023-07-08T03:14:36;23.30;42.40
1107;DHT22;540;49.448;8.612;2023-07-08T03:17:04;23.30;42.70
1107;DHT22;540;49.448;8.612;2023-07-08T03:19:34;23.30;42.90
1107;DHT22;540;49.448;8.612;2023-07-08T03:22:01;23.20;43.10
1107;DHT22;540;49.448;8.612;2023-07-08T03:24:31;23.20;43.30
1107;DHT22;540;49.448;8.612;2023-07-08T03:26:59;23.10;43.60
1107;DHT22;540;49.448;8.612;2023-07-08T03:29:31;23.00;44.00
1107;DHT22;540;49.448;8.612;2023-07-08T03:31:59;23.00;44.30
1107;DHT22;540;49.448;8.612;2023-07-08T03:34:27;23.00;44.20
1107;DHT22;540;49.448;8.612;2023-07-08T03:36:56;23.00;44.20
1107;DHT22;540;49.448;8.612;2023-07-08T03:39:24;23.00;44.20
1107;DHT22;540;49.448;8.612;2023-07-08T03:41:52;22.90;44.20
1107;DHT22;540;49.448;8.612;2023-07-08T03:44:20;22.90;44.40
1107;DHT22;540;49.448;8.612;2023-07-08T03:46:49;23.00;44.50
1107;DHT22;540;49.448;8.612;2023-07-08T03:49:18;22.90;44.60
1107;DHT22;540;49.448;8.612;2023-07-08T03:51:49;22.90;44.80
1107;DHT22;540;49.448;8.612;2023-07-08T03:54:21;22.90;44.90
1107;DHT22;540;49.448;8.612;2023-07-08T03:56:49;22.90;45.10
1107;DHT22;540;49.448;8.612;2023-07-08T03:59:17;22.90;45.50
1107;DHT22;540;49.448;8.612;2023-07-08T04:01:45;22.90;45.70
1107;DHT22;540;49.448;8.612;2023-07-08T04:04:14;22.90;45.90
1107;DHT22;540;49.448;8.612;2023-07-08T04:06:43;22.80;46.30
1107;DHT22;540;49.448;8.612;2023-07-08T04:09:12;22.80;46.50
1107;DHT22;540;49.448;8.612;2023-07-08T04:11:41;22.90;46.70
1107;DHT22;540;49.448;8.612;2023-07-08T04:14:09;22.80;46.80
1107;DHT22;540;49.448;8.612;2023-07-08T04:16:46;22.90;47.00
1107;DHT22;540;49.448;8.612;2023-07-08T04:19:15;22.90;47.20
1107;DHT22;540;49.448;8.612;2023-07-08T04:21:44;22.90;47.10
1107;DHT22;540;49.448;8.612;2023-07-08T04:24:14;22.90;47.30
1107;DHT22;540;49.448;8.612;2023-07-08T04:26:44;22.90;47.50
1107;DHT22;540;49.448;8.612;2023-07-08T04:29:14;22.80;47.50
1107;DHT22;540;49.448;8.612;2023-07-08T04:31:43;22.80;47.90
1107;DHT22;540;49.448;8.612;2023-07-08T04:34:11;22.90;48.10
1107;DHT22;540;49.448;8.612;2023-07-08T04:36:39;22.90;48.20
1107;DHT22;540;49.448;8.612;2023-07-08T04:39:08;22.90;48.50
1107;DHT22;540;49.448;8.612;2023-07-08T04:41:37;22.80;48.70
1107;DHT22;540;49.448;8.612;2023-07-08T04:44:09;22.80;48.70
1107;DHT22;540;49.448;8.612;2023-07-08T04:46:41;22.90;48.80
1107;DHT22;540;49.448;8.612;2023-07-08T04:49:09;22.90;49.80
1107;DHT22;540;49.448;8.612;2023-07-08T04:51:37;22.90;50.30
1107;DHT22;540;49.448;8.612;2023-07-08T04:54:06;22.90;49.40
1107;DHT22;540;49.448;8.612;2023-07-08T04:56:37;23.00;49.40
1107;DHT22;540;49.448;8.612;2023-07-08T04:59:05;23.00;49.40
1107;DHT22;540;49.448;8.612;2023-07-08T05:01:35;23.00;49.20
1107;DHT22;540;49.448;8.612;2023-07-08T05:04:03;23.10;49.20
1107;DHT22;540;49.448;8.612;2023-07-08T05:06:33;23.20;49.10
1107;DHT22;540;49.448;8.612;2023-07-08T05:09:02;22.80;48.60
1107;DHT22;540;49.448;8.612;2023-07-08T05:11:30;23.40;48.60
1107;DHT22;540;49.448;8.612;2023-07-08T05:13:59;23.50;48.40
1107;DHT22;540;49.448;8.612;2023-07-08T05:16:27;23.60;48.30
1107;DHT22;540;49.448;8.612;2023-07-08T05:18:57;24.00;47.90
1107;DHT22;540;49.448;8.612;2023-07-08T05:21:24;25.20;45.60
1107;DHT22;540;49.448;8.612;2023-07-08T05:23:54;25.90;43.60
1107;DHT22;540;49.448;8.612;2023-07-08T05:26:22;27.10;41.40
1107;DHT22;540;49.448;8.612;2023-07-08T05:28:49;28.00;38.80
1107;DHT22;540;49.448;8.612;2023-07-08T05:31:17;27.80;37.40
1107;DHT22;540;49.448;8.612;2023-07-08T05:33:45;27.00;39.00
1107;DHT22;540;49.448;8.612;2023-07-08T05:36:14;26.40;40.60
1107;DHT22;540;49.448;8.612;2023-07-08T05:38:42;26.10;42.30
1107;DHT22;540;49.448;8.612;2023-07-08T05:41:10;26.00;44.10
1107;DHT22;540;49.448;8.612;2023-07-08T05:43:38;27.20;43.10
1107;DHT22;540;49.448;8.612;2023-07-08T05:46:07;29.20;38.60
1107;DHT22;540;49.448;8.612;2023-07-08T05:48:38;31.10;34.10
1107;DHT22;540;49.448;8.612;2023-07-08T05:51:06;32.50;31.00
1107;DHT22;540;49.448;8.612;2023-07-08T05:53:36;33.30;29.30
1107;DHT22;540;49.448;8.612;2023-07-08T05:56:04;33.50;28.60
1107;DHT22;540;49.448;8.612;2023-07-08T05:58:32;33.10;30.30
1107;DHT22;540;49.448;8.612;2023-07-08T06:00:59;32.00;32.10
1107;DHT22;540;49.448;8.612;2023-07-08T06:03:28;30.30;34.10
1107;DHT22;540;49.448;8.612;2023-07-08T06:05:56;28.30;36.90
1107;DHT22;540;49.448;8.612;2023-07-08T06:08:24;27.00;40.20
1107;DHT22;540;49.448;8.612;2023-07-08T06:10:53;26.10;42.20
1107;DHT22;540;49.448;8.612;2023-07-08T06:13:21;25.50;43.50
1107;DHT22;540;49.448;8.612;2023-07-08T06:15:49;25.20;44.10
1107;DHT22;540;49.448;8.612;2023-07-08T06:18:17;25.20;44.30
1107;DHT22;540;49.448;8.612;2023-07-08T06:20:51;25.30;44.60
1107;DHT22;540;49.448;8.612;2023-07-08T06:23:19;25.70;43.40
1107;DHT22;540;49.448;8.612;2023-07-08T06:25:46;26.00;42.90
1107;DHT22;540;49.448;8.612;2023-07-08T06:28:16;26.60;41.30
1107;DHT22;540;49.448;8.612;2023-07-08T06:30:44;26.80;40.60
1107;DHT22;540;49.448;8.612;2023-07-08T06:33:12;26.60;40.00
1107;DHT22;540;49.448;8.612;2023-07-08T06:35:40;26.40;40.30
1107;DHT22;540;49.448;8.612;2023-07-08T06:38:10;26.30;40.10
1107;DHT22;540;49.448;8.612;2023-07-08T06:40:38;26.30;40.00
1107;DHT22;540;49.448;8.612;2023-07-08T06:43:05;26.10;40.50
1107;DHT22;540;49.448;8.612;2023-07-08T06:45:35;25.90;40.60
1107;DHT22;540;49.448;8.612;2023-07-08T06:48:03;25.90;39.80
1107;DHT22;540;49.448;8.612;2023-07-08T06:50:31;26.00;39.80
1107;DHT22;540;49.448;8.612;2023-07-08T06:52:59;26.70;39.50
1107;DHT22;540;49.448;8.612;2023-07-08T06:55:27;27.70;38.90
1107;DHT22;540;49.448;8.612;2023-07-08T06:57:56;28.50;37.60
1107;DHT22;540;49.448;8.612;2023-07-08T07:00:24;29.50;35.70
1107;DHT22;540;49.448;8.612;2023-07-08T07:02:53;30.30;34.60
1107;DHT22;540;49.448;8.612;2023-07-08T07:05:21;31.50;33.20
1107;DHT22;540;49.448;8.612;2023-07-08T07:07:49;32.80;31.00
1107;DHT22;540;49.448;8.612;2023-07-08T07:10:19;33.00;29.70
1107;DHT22;540;49.448;8.612;2023-07-08T07:12:47;32.40;29.10
1107;DHT22;540;49.448;8.612;2023-07-08T07:15:15;31.40;29.60
1107;DHT22;540;49.448;8.612;2023-07-08T07:17:42;29.90;31.60
1107;DHT22;540;49.448;8.612;2023-07-08T07:20:12;29.30;33.40
1107;DHT22;540;49.448;8.612;2023-07-08T07:22:40;29.90;33.80
1107;DHT22;540;49.448;8.612;2023-07-08T07:25:08;30.90;33.00
1107;DHT22;540;49.448;8.612;2023-07-08T07:27:36;30.80;32.60
1107;DHT22;540;49.448;8.612;2023-07-08T07:30:05;29.90;34.90
1107;DHT22;540;49.448;8.612;2023-07-08T07:32:33;28.80;37.30
1107;DHT22;540;49.448;8.612;2023-07-08T07:35:02;28.50;38.20
1107;DHT22;540;49.448;8.612;2023-07-08T07:37:31;28.60;38.40
1107;DHT22;540;49.448;8.612;2023-07-08T07:39:59;28.80;38.50
1107;DHT22;540;49.448;8.612;2023-07-08T07:42:27;29.70;37.40
1107;DHT22;540;49.448;8.612;2023-07-08T07:44:55;30.40;36.10
1107;DHT22;540;49.448;8.612;2023-07-08T07:47:23;30.70;35.20
1107;DHT22;540;49.448;8.612;2023-07-08T07:49:53;30.70;35.50
1107;DHT22;540;49.448;8.612;2023-07-08T07:52:21;30.70;35.70
1107;DHT22;540;49.448;8.612;2023-07-08T07:54:52;30.60;36.30
1107;DHT22;540;49.448;8.612;2023-07-08T07:57:21;30.60;36.40
1107;DHT22;540;49.448;8.612;2023-07-08T07:59:49;30.10;36.60
1107;DHT22;540;49.448;8.612;2023-07-08T08:02:18;29.30;38.30
1107;DHT22;540;49.448;8.612;2023-07-08T08:04:47;28.80;39.70
1107;DHT22;540;49.448;8.612;2023-07-08T08:07:16;28.30;40.80
1107;DHT22;540;49.448;8.612;2023-07-08T08:09:45;28.20;41.60
1107;DHT22;540;49.448;8.612;2023-07-08T08:12:15;28.40;41.60
1107;DHT22;540;49.448;8.612;2023-07-08T08:14:46;28.80;41.40
1107;DHT22;540;49.448;8.612;2023-07-08T08:17:14;29.90;40.10
1107;DHT22;540;49.448;8.612;2023-07-08T08:19:43;32.30;36.30
1107;DHT22;540;49.448;8.612;2023-07-08T08:22:12;34.00;33.40
1107;DHT22;540;49.448;8.612;2023-07-08T08:24:41;35.10;31.20
1107;DHT22;540;49.448;8.612;2023-07-08T08:27:10;35.30;30.20
1107;DHT22;540;49.448;8.612;2023-07-08T08:29:40;35.30;30.10
1107;DHT22;540;49.448;8.612;2023-07-08T08:32:11;35.50;29.80
1107;DHT22;540;49.448;8.612;2023-07-08T08:34:40;35.60;29.90
1107;DHT22;540;49.448;8.612;2023-07-08T08:37:09;35.70;29.80
1107;DHT22;540;49.448;8.612;2023-07-08T08:39:37;35.60;30.20
1107;DHT22;540;49.448;8.612;2023-07-08T08:42:10;36.20;29.50
1107;DHT22;540;49.448;8.612;2023-07-08T08:44:39;36.40;29.20
1107;DHT22;540;49.448;8.612;2023-07-08T08:47:25;36.60;29.20
1107;DHT22;540;49.448;8.612;2023-07-08T08:50:00;35.50;30.00
1107;DHT22;540;49.448;8.612;2023-07-08T08:52:29;35.20;31.10
1107;DHT22;540;49.448;8.612;2023-07-08T08:54:57;35.20;31.00
1107;DHT22;540;49.448;8.612;2023-07-08T08:57:34;35.00;31.40
1107;DHT22;540;49.448;8.612;2023-07-08T09:00:09;35.20;31.10
1107;DHT22;540;49.448;8.612;2023-07-08T09:02:42;34.70;31.80
1107;DHT22;540;49.448;8.612;2023-07-08T09:05:14;34.30;32.90
1107;DHT22;540;49.448;8.612;2023-07-08T09:07:45;34.40;32.80
1107;DHT22;540;49.448;8.612;2023-07-08T09:10:29;34.60;32.60
1107;DHT22;540;49.448;8.612;2023-07-08T09:13:02;34.60;32.70
1107;DHT22;540;49.448;8.612;2023-07-08T09:15:33;35.10;31.70
1107;DHT22;540;49.448;8.612;2023-07-08T09:18:10;34.80;31.90
1107;DHT22;540;49.448;8.612;2023-07-08T09:20:40;34.50;33.20
1107;DHT22;540;49.448;8.612;2023-07-08T09:23:16;34.50;33.00
1107;DHT22;540;49.448;8.612;2023-07-08T09:25:52;34.20;33.30
1107;DHT22;540;49.448;8.612;2023-07-08T09:28:21;33.80;34.20
1107;DHT22;540;49.448;8.612;2023-07-08T09:30:53;33.80;34.30
1107;DHT22;540;49.448;8.612;2023-07-08T09:33:21;33.90;34.30
1107;DHT22;540;49.448;8.612;2023-07-08T09:35:51;34.20;33.60
1107;DHT22;540;49.448;8.612;2023-07-08T09:38:22;34.20;33.50
1107;DHT22;540;49.448;8.612;2023-07-08T09:40:52;34.10;33.60
1107;DHT22;540;49.448;8.612;2023-07-08T09:43:25;33.90;34.00
1107;DHT22;540;49.448;8.612;2023-07-08T09:45:58;33.90;34.40
1107;DHT22;540;49.448;8.612;2023-07-08T09:48:28;34.50;33.90
1107;DHT22;540;49.448;8.612;2023-07-08T09:50:57;35.10;32.60
1107;DHT22;540;49.448;8.612;2023-07-08T09:53:26;35.40;31.30
1107;DHT22;540;49.448;8.612;2023-07-08T09:55:57;35.00;32.20
1107;DHT22;540;49.448;8.612;2023-07-08T09:58:29;35.20;31.70
1107;DHT22;540;49.448;8.612;2023-07-08T10:01:09;35.60;31.70
1107;DHT22;540;49.448;8.612;2023-07-08T10:03:37;35.50;30.90
1107;DHT22;540;49.448;8.612;2023-07-08T10:06:16;34.30;32.80
1107;DHT22;540;49.448;8.612;2023-07-08T10:08:44;34.50;32.90
1107;DHT22;540;49.448;8.612;2023-07-08T10:11:22;35.10;31.80
1107;DHT22;540;49.448;8.612;2023-07-08T10:13:53;35.50;31.30
1107;DHT22;540;49.448;8.612;2023-07-08T10:16:40;36.30;30.30
1107;DHT22;540;49.448;8.612;2023-07-08T10:19:13;35.80;30.90
1107;DHT22;540;49.448;8.612;2023-07-08T10:21:48;36.10;30.80
1107;DHT22;540;49.448;8.612;2023-07-08T10:24:26;36.50;30.20
1107;DHT22;540;49.448;8.612;2023-07-08T10:27:15;36.60;30.10
1107;DHT22;540;49.448;8.612;2023-07-08T10:29:53;36.20;30.60
1107;DHT22;540;49.448;8.612;2023-07-08T10:32:32;36.20;30.50
1107;DHT22;540;49.448;8.612;2023-07-08T10:35:10;35.80;31.00
1107;DHT22;540;49.448;8.612;2023-07-08T10:37:47;35.60;31.60
1107;DHT22;540;49.448;8.612;2023-07-08T10:40:34;35.00;32.10
1107;DHT22;540;49.448;8.612;2023-07-08T10:43:24;35.40;31.90
1107;DHT22;540;49.448;8.612;2023-07-08T10:46:04;35.70;32.00
1107;DHT22;540;49.448;8.612;2023-07-08T10:49:04;36.00;31.30
1107;DHT22;540;49.448;8.612;2023-07-08T10:51:40;35.80;31.40
1107;DHT22;540;49.448;8.612;2023-07-08T10:54:26;36.00;31.20
1107;DHT22;540;49.448;8.612;2023-07-08T10:57:02;35.80;31.00
1107;DHT22;540;49.448;8.612;2023-07-08T10:59:44;35.40;32.00
1107;DHT22;540;49.448;8.612;2023-07-08T11:02:39;35.00;32.30
1107;DHT22;540;49.448;8.612;2023-07-08T11:05:21;35.30;32.00
1107;DHT22;540;49.448;8.612;2023-07-08T11:07:56;34.40;33.40
1107;DHT22;540;49.448;8.612;2023-07-08T11:10:29;34.10;33.90
1107;DHT22;540;49.448;8.612;2023-07-08T11:13:06;34.50;33.50
1107;DHT22;540;49.448;8.612;2023-07-08T11:15:45;34.80;33.30
1107;DHT22;540;49.448;8.612;2023-07-08T11:18:19;35.50;32.20
1107;DHT22;540;49.448;8.612;2023-07-08T11:20:59;35.60;32.00
1107;DHT22;540;49.448;8.612;2023-07-08T11:23:32;35.70;31.90
1107;DHT22;540;49.448;8.612;2023-07-08T11:26:10;35.50;32.20
1107;DHT22;540;49.448;8.612;2023-07-08T11:28:42;35.30;32.00
1107;DHT22;540;49.448;8.612;2023-07-08T11:31:11;35.30;32.10
1107;DHT22;540;49.448;8.612;2023-07-08T11:33:42;35.70;31.70
1107;DHT22;540;49.448;8.612;2023-07-08T11:36:13;36.00;31.20
1107;DHT22;540;49.448;8.612;2023-07-08T11:38:48;35.40;31.50
1107;DHT22;540;49.448;8.612;2023-07-08T11:41:17;35.10;32.20
1107;DHT22;540;49.448;8.612;2023-07-08T11:43:50;35.40;31.70
1107;DHT22;540;49.448;8.612;2023-07-08T11:46:21;35.60;31.30
1107;DHT22;540;49.448;8.612;2023-07-08T11:48:53;36.00;30.70
1107;DHT22;540;49.448;8.612;2023-07-08T11:51:28;35.40;31.00
1107;DHT22;540;49.448;8.612;2023-07-08T11:54:09;35.00;31.00
1107;DHT22;540;49.448;8.612;2023-07-08T11:56:48;34.90;31.20
1107;DHT22;540;49.448;8.612;2023-07-08T11:59:19;35.00;31.30
1107;DHT22;540;49.448;8.612;2023-07-08T12:01:53;35.30;30.80
1107;DHT22;540;49.448;8.612;2023-07-08T12:04:29;35.40;31.10
1107;DHT22;540;49.448;8.612;2023-07-08T12:07:14;35.80;30.90
1107;DHT22;540;49.448;8.612;2023-07-08T12:09:48;35.90;30.20
1107;DHT22;540;49.448;8.612;2023-07-08T12:12:22;35.80;29.90
1107;DHT22;540;49.448;8.612;2023-07-08T12:14:53;35.60;29.70
1107;DHT22;540;49.448;8.612;2023-07-08T12:17:22;35.20;30.00
1107;DHT22;540;49.448;8.612;2023-07-08T12:19:51;35.10;30.70
1107;DHT22;540;49.448;8.612;2023-07-08T12:22:22;35.30;30.90
1107;DHT22;540;49.448;8.612;2023-07-08T12:24:50;35.40;30.90
1107;DHT22;540;49.448;8.612;2023-07-08T12:27:19;35.50;31.20
1107;DHT22;540;49.448;8.612;2023-07-08T12:29:49;35.40;30.90
1107;DHT22;540;49.448;8.612;2023-07-08T12:32:18;35.40;31.30
1107;DHT22;540;49.448;8.612;2023-07-08T12:34:49;35.30;31.30
1107;DHT22;540;49.448;8.612;2023-07-08T12:37:17;35.00;31.50
1107;DHT22;540;49.448;8.612;2023-07-08T12:39:55;35.00;31.40
1107;DHT22;540;49.448;8.612;2023-07-08T12:42:26;34.70;32.00
1107;DHT22;540;49.448;8.612;2023-07-08T12:44:55;34.90;31.00
1107;DHT22;540;49.448;8.612;2023-07-08T12:47:23;34.90;30.80
1107;DHT22;540;49.448;8.612;2023-07-08T12:49:51;34.70;31.60
1107;DHT22;540;49.448;8.612;2023-07-08T12:52:21;34.30;31.50
1107;DHT22;540;49.448;8.612;2023-07-08T12:54:50;34.20;32.60
1107;DHT22;540;49.448;8.612;2023-07-08T12:57:19;34.00;33.10
1107;DHT22;540;49.448;8.612;2023-07-08T12:59:47;33.80;32.80
1107;DHT22;540;49.448;8.612;2023-07-08T13:02:17;33.80;33.20
1107;DHT22;540;49.448;8.612;2023-07-08T13:04:49;33.70;32.60
1107;DHT22;540;49.448;8.612;2023-07-08T13:07:25;33.80;33.20
1107;DHT22;540;49.448;8.612;2023-07-08T13:09:56;33.80;33.10
1107;DHT22;540;49.448;8.612;2023-07-08T13:12:26;33.80;33.40
1107;DHT22;540;49.448;8.612;2023-07-08T13:14:55;33.70;33.90
1107;DHT22;540;49.448;8.612;2023-07-08T13:17:29;33.90;34.30
1107;DHT22;540;49.448;8.612;2023-07-08T13:19:58;33.90;34.10
1107;DHT22;540;49.448;8.612;2023-07-08T13:22:26;34.10;33.90
1107;DHT22;540;49.448;8.612;2023-07-08T13:25:00;34.00;33.90
1107;DHT22;540;49.448;8.612;2023-07-08T13:27:30;34.10;34.00
1107;DHT22;540;49.448;8.612;2023-07-08T13:30:15;34.00;33.50
1107;DHT22;540;49.448;8.612;2023-07-08T13:32:47;34.00;33.80
1107;DHT22;540;49.448;8.612;2023-07-08T13:35:24;34.10;32.10
1107;DHT22;540;49.448;8.612;2023-07-08T13:37:55;34.20;32.20
1107;DHT22;540;49.448;8.612;2023-07-08T13:40:27;34.40;31.90
1107;DHT22;540;49.448;8.612;2023-07-08T13:42:57;34.10;32.00
1107;DHT22;540;49.448;8.612;2023-07-08T13:45:31;34.10;32.10
1107;DHT22;540;49.448;8.612;2023-07-08T13:48:11;34.10;31.50
1107;DHT22;540;49.448;8.612;2023-07-08T13:50:46;34.50;31.70
1107;DHT22;540;49.448;8.612;2023-07-08T13:53:19;34.40;32.10
1107;DHT22;540;49.448;8.612;2023-07-08T13:55:48;34.50;31.20
1107;DHT22;540;49.448;8.612;2023-07-08T13:58:27;34.60;30.90
1107;DHT22;540;49.448;8.612;2023-07-08T14:00:57;34.40;30.70
1107;DHT22;540;49.448;8.612;2023-07-08T14:03:26;34.40;30.50
1107;DHT22;540;49.448;8.612;2023-07-08T14:05:55;34.50;30.20
1107;DHT22;540;49.448;8.612;2023-07-08T14:08:23;34.60;30.80
1107;DHT22;540;49.448;8.612;2023-07-08T14:10:51;34.60;31.00
1107;DHT22;540;49.448;8.612;2023-07-08T14:13:20;34.70;31.20
1107;DHT22;540;49.448;8.612;2023-07-08T14:15:49;34.70;31.00
1107;DHT22;540;49.448;8.612;2023-07-08T14:18:17;34.40;31.60
1107;DHT22;540;49.448;8.612;2023-07-08T14:20:45;34.40;31.00
1107;DHT22;540;49.448;8.612;2023-07-08T14:23:13;34.40;30.40
1107;DHT22;540;49.448;8.612;2023-07-08T14:25:41;34.40;30.60
1107;DHT22;540;49.448;8.612;2023-07-08T14:28:09;34.50;29.90
1107;DHT22;540;49.448;8.612;2023-07-08T14:30:41;34.50;30.00
1107;DHT22;540;49.448;8.612;2023-07-08T14:33:11;34.70;30.00
1107;DHT22;540;49.448;8.612;2023-07-08T14:35:40;34.50;30.20
1107;DHT22;540;49.448;8.612;2023-07-08T14:38:10;34.50;30.00
1107;DHT22;540;49.448;8.612;2023-07-08T14:40:41;34.60;29.70
1107;DHT22;540;49.448;8.612;2023-07-08T14:43:13;34.60;29.50
1107;DHT22;540;49.448;8.612;2023-07-08T14:45:45;34.60;28.30
1107;DHT22;540;49.448;8.612;2023-07-08T14:48:16;34.70;28.00
1107;DHT22;540;49.448;8.612;2023-07-08T14:50:44;34.60;28.30
1107;DHT22;540;49.448;8.612;2023-07-08T14:53:13;34.60;28.70
1107;DHT22;540;49.448;8.612;2023-07-08T14:55:42;34.60;28.20
1107;DHT22;540;49.448;8.612;2023-07-08T14:58:17;34.50;27.80
1107;DHT22;540;49.448;8.612;2023-07-08T15:00:47;34.30;28.20
1107;DHT22;540;49.448;8.612;2023-07-08T15:03:17;34.30;28.10
1107;DHT22;540;49.448;8.612;2023-07-08T15:05:45;34.20;28.20
1107;DHT22;540;49.448;8.612;2023-07-08T15:08:14;34.30;28.30
1107;DHT22;540;49.448;8.612;2023-07-08T15:10:44;34.20;28.30
1107;DHT22;540;49.448;8.612;2023-07-08T15:13:13;34.10;29.20
1107;DHT22;540;49.448;8.612;2023-07-08T15:15:41;33.90;29.60
1107;DHT22;540;49.448;8.612;2023-07-08T15:18:12;33.70;29.40
1107;DHT22;540;49.448;8.612;2023-07-08T15:20:47;33.70;29.40
1107;DHT22;540;49.448;8.612;2023-07-08T15:23:35;33.80;29.40
1107;DHT22;540;49.448;8.612;2023-07-08T15:26:22;34.00;28.70
1107;DHT22;540;49.448;8.612;2023-07-08T15:28:52;34.10;28.60
1107;DHT22;540;49.448;8.612;2023-07-08T15:31:24;34.20;28.70
1107;DHT22;540;49.448;8.612;2023-07-08T15:34:01;34.30;28.10
1107;DHT22;540;49.448;8.612;2023-07-08T15:36:38;34.30;27.70
1107;DHT22;540;49.448;8.612;2023-07-08T15:39:07;34.40;27.90
1107;DHT22;540;49.448;8.612;2023-07-08T15:41:37;34.20;28.20
1107;DHT22;540;49.448;8.612;2023-07-08T15:44:09;34.20;27.90
1107;DHT22;540;49.448;8.612;2023-07-08T15:46:40;34.20;27.60
1107;DHT22;540;49.448;8.612;2023-07-08T15:49:14;34.30;27.90
1107;DHT22;540;49.448;8.612;2023-07-08T15:51:45;34.20;28.20
1107;DHT22;540;49.448;8.612;2023-07-08T15:54:18;34.20;27.90
1107;DHT22;540;49.448;8.612;2023-07-08T15:56:49;34.20;27.80
1107;DHT22;540;49.448;8.612;2023-07-08T15:59:28;34.10;27.80
1107;DHT22;540;49.448;8.612;2023-07-08T16:02:01;34.20;28.20
1107;DHT22;540;49.448;8.612;2023-07-08T16:04:33;34.10;28.40
1107;DHT22;540;49.448;8.612;2023-07-08T16:07:04;34.10;28.60
1107;DHT22;540;49.448;8.612;2023-07-08T16:09:35;34.10;28.20
1107;DHT22;540;49.448;8.612;2023-07-08T16:12:20;34.00;28.40
1107;DHT22;540;49.448;8.612;2023-07-08T16:14:50;34.10;28.50
1107;DHT22;540;49.448;8.612;2023-07-08T16:17:21;34.10;28.60
1107;DHT22;540;49.448;8.612;2023-07-08T16:19:51;34.20;28.50
1107;DHT22;540;49.448;8.612;2023-07-08T16:22:36;34.20;28.30
1107;DHT22;540;49.448;8.612;2023-07-08T16:25:08;34.10;28.80
1107;DHT22;540;49.448;8.612;2023-07-08T16:27:40;34.20;28.70
1107;DHT22;540;49.448;8.612;2023-07-08T16:30:13;34.20;28.70
1107;DHT22;540;49.448;8.612;2023-07-08T16:32:43;34.20;28.10
1107;DHT22;540;49.448;8.612;2023-07-08T16:35:13;34.00;28.60
1107;DHT22;540;49.448;8.612;2023-07-08T16:37:45;33.90;28.80
1107;DHT22;540;49.448;8.612;2023-07-08T16:40:15;33.90;28.50
1107;DHT22;540;49.448;8.612;2023-07-08T16:42:45;33.90;28.60